createdAt,value
2022-10-16T00:00:44.010Z,3.25
2022-10-16T00:03:13.494Z,4.03
2022-10-16T00:05:44.933Z,3.83
2022-10-16T00:08:14.995Z,2.45
2022-10-16T00:10:43.945Z,3.30
2022-10-16T00:13:14.358Z,3.08
2022-10-16T00:15:44.856Z,2.65
2022-10-16T00:18:15.396Z,5.55
2022-10-16T00:20:44.658Z,2.78
2022-10-16T00:23:32.657Z,3.15
2022-10-16T00:26:06.362Z,3.35
2022-10-16T00:28:40.040Z,3.85
2022-10-16T00:31:12.838Z,7.35
2022-10-16T00:33:42.835Z,7.80
2022-10-16T00:36:14.999Z,3.17
2022-10-16T00:38:44.272Z,4.75
2022-10-16T00:41:16.587Z,3.35
2022-10-16T00:43:49.160Z,5.60
2022-10-16T00:46:22.309Z,3.45
2022-10-16T00:48:58.133Z,5.85
2022-10-16T00:51:33.470Z,2.88
2022-10-16T00:54:03.442Z,3.50
2022-10-16T00:56:33.389Z,4.50
2022-10-16T00:59:06.176Z,2.75
2022-10-16T01:01:35.340Z,3.88
2022-10-16T01:04:04.506Z,2.58
2022-10-16T01:06:41.746Z,10.98
2022-10-16T01:09:18.111Z,4.57
2022-10-16T01:11:56.821Z,5.32
2022-10-16T01:14:35.254Z,6.32
2022-10-16T01:17:12.027Z,3.45
2022-10-16T01:20:03.295Z,4.65
2022-10-16T01:22:46.657Z,2.70
2022-10-16T01:25:30.610Z,6.50
2022-10-16T01:28:03.345Z,4.90
2022-10-16T01:30:35.892Z,3.90
2022-10-16T01:33:12.446Z,2.90
2022-10-16T01:35:46.678Z,3.17
2022-10-16T01:38:21.342Z,5.00
2022-10-16T01:40:57.551Z,2.33
2022-10-16T01:43:32.295Z,2.90
2022-10-16T01:46:02.754Z,3.17
2022-10-16T01:48:33.819Z,2.47
2022-10-16T01:51:08.306Z,4.78
2022-10-16T01:53:38.462Z,3.60
2022-10-16T01:56:14.246Z,2.60
2022-10-16T01:58:54.439Z,2.85
2022-10-16T02:01:27.089Z,2.75
2022-10-16T02:04:03.647Z,3.65
2022-10-16T02:06:32.802Z,7.10
2022-10-16T02:09:02.130Z,2.58
2022-10-16T02:11:31.515Z,5.00
2022-10-16T02:14:10.202Z,2.42
2022-10-16T02:16:42.481Z,2.58
2022-10-16T02:19:16.017Z,2.50
2022-10-16T02:21:51.428Z,3.72
2022-10-16T02:24:30.523Z,2.72
2022-10-16T02:27:06.588Z,2.65
2022-10-16T02:29:42.152Z,2.50
2022-10-16T02:32:14.838Z,2.63
2022-10-16T02:34:44.786Z,4.40
2022-10-16T02:37:14.925Z,2.40
2022-10-16T02:39:44.078Z,4.68
2022-10-16T02:42:14.734Z,2.17
2022-10-16T02:44:45.163Z,2.63
2022-10-16T02:47:14.161Z,2.60
2022-10-16T02:49:43.323Z,4.15
2022-10-16T02:52:13.251Z,2.30
2022-10-16T02:54:42.259Z,2.40
2022-10-16T02:57:11.223Z,3.55
2022-10-16T02:59:40.408Z,2.78
2022-10-16T03:02:10.975Z,3.65
2022-10-16T03:04:51.968Z,2.70
2022-10-16T03:07:20.916Z,2.95
2022-10-16T03:09:49.908Z,2.63
2022-10-16T03:12:45.234Z,3.90
2022-10-16T03:15:14.249Z,2.95
2022-10-16T03:17:44.654Z,4.70
2022-10-16T03:20:13.646Z,4.90
2022-10-16T03:22:42.791Z,2.60
2022-10-16T03:25:11.781Z,7.18
2022-10-16T03:27:40.695Z,2.17
2022-10-16T03:30:11.525Z,2.83
2022-10-16T03:32:40.526Z,2.92
2022-10-16T03:35:15.349Z,2.90
2022-10-16T03:37:44.594Z,5.63
2022-10-16T03:40:13.843Z,3.30
2022-10-16T03:42:44.296Z,3.03
2022-10-16T03:45:36.282Z,3.72
2022-10-16T03:48:05.513Z,3.13
2022-10-16T03:50:36.095Z,3.33
2022-10-16T03:53:05.335Z,4.25
2022-10-16T03:55:34.326Z,5.60
2022-10-16T03:58:03.591Z,3.03
2022-10-16T04:00:32.599Z,3.25
2022-10-16T04:03:01.530Z,5.55
2022-10-16T04:05:30.508Z,5.60
2022-10-16T04:08:00.811Z,3.05
2022-10-16T04:10:29.759Z,4.38
2022-10-16T04:12:59.041Z,5.22
2022-10-16T04:15:28.214Z,2.90
2022-10-16T04:17:57.385Z,6.03
2022-10-16T04:20:26.485Z,2.55
2022-10-16T04:22:56.589Z,2.65
2022-10-16T04:25:27.143Z,3.20
2022-10-16T04:27:56.145Z,2.90
2022-10-16T04:30:25.594Z,4.07
2022-10-16T04:32:55.139Z,2.47
2022-10-16T04:35:24.599Z,2.33
2022-10-16T04:37:53.627Z,4.65
2022-10-16T04:40:47.784Z,2.60
2022-10-16T04:43:16.877Z,2.92
2022-10-16T04:45:45.909Z,6.88
2022-10-16T04:48:15.018Z,5.72
2022-10-16T04:50:44.148Z,3.08
2022-10-16T04:53:13.131Z,3.75
2022-10-16T04:55:43.053Z,3.50
2022-10-16T04:58:13.563Z,4.18
2022-10-16T05:00:42.584Z,3.85
2022-10-16T05:03:20.956Z,5.28
2022-10-16T05:05:50.173Z,2.90
2022-10-16T05:08:19.605Z,3.80
2022-10-16T05:10:48.698Z,2.90
2022-10-16T05:13:19.060Z,2.75
2022-10-16T05:15:50.071Z,3.20
2022-10-16T05:18:19.482Z,6.85
2022-10-16T05:20:48.496Z,4.47
2022-10-16T05:23:17.709Z,5.53
2022-10-16T05:25:55.537Z,2.50
2022-10-16T05:28:26.511Z,6.28
2022-10-16T05:30:55.705Z,3.58
2022-10-16T05:33:27.312Z,3.35
2022-10-16T05:35:56.388Z,6.85
2022-10-16T05:38:25.487Z,2.90
2022-10-16T05:40:55.038Z,2.60
2022-10-16T05:43:25.719Z,3.95
2022-10-16T05:45:58.745Z,3.05
2022-10-16T05:48:28.730Z,2.70
2022-10-16T05:51:04.239Z,3.00
2022-10-16T05:53:35.796Z,3.10
2022-10-16T05:56:06.654Z,3.55
2022-10-16T05:58:52.158Z,3.78
2022-10-16T06:01:25.121Z,3.28
2022-10-16T06:03:54.701Z,3.03
2022-10-16T06:06:26.710Z,3.67
2022-10-16T06:08:58.002Z,2.88
2022-10-16T06:11:29.722Z,4.30
2022-10-16T06:14:12.163Z,3.40
2022-10-16T06:16:41.348Z,2.67
2022-10-16T06:19:10.466Z,3.45
2022-10-16T06:21:39.511Z,5.20
2022-10-16T06:24:08.507Z,3.45
2022-10-16T06:26:37.611Z,3.78
2022-10-16T06:29:08.091Z,8.30
2022-10-16T06:31:37.213Z,5.53
2022-10-16T06:34:10.283Z,3.55
2022-10-16T06:36:39.763Z,4.18
2022-10-16T06:39:09.158Z,5.15
2022-10-16T06:41:38.739Z,5.57
2022-10-16T06:44:19.116Z,4.88
2022-10-16T06:46:48.085Z,3.97
2022-10-16T06:49:22.379Z,3.88
2022-10-16T06:51:51.469Z,3.25
2022-10-16T06:54:20.534Z,4.93
2022-10-16T06:56:49.680Z,8.43
2022-10-16T06:59:20.552Z,6.32
2022-10-16T07:01:50.191Z,2.92
2022-10-16T07:04:19.528Z,2.95
2022-10-16T07:06:48.586Z,5.05
2022-10-16T07:09:17.644Z,3.60
2022-10-16T07:11:47.665Z,4.20
2022-10-16T07:14:22.086Z,4.47
2022-10-16T07:16:51.235Z,5.30
2022-10-16T07:19:20.445Z,4.55
2022-10-16T07:21:49.597Z,4.07
2022-10-16T07:24:19.260Z,3.72
2022-10-16T07:26:48.726Z,3.30
2022-10-16T07:29:22.567Z,5.07
2022-10-16T07:31:51.992Z,6.90
2022-10-16T07:34:23.383Z,3.50
2022-10-16T07:36:52.731Z,5.40
2022-10-16T07:39:21.871Z,3.60
2022-10-16T07:41:50.824Z,5.32
2022-10-16T07:44:21.338Z,3.15
2022-10-16T07:46:50.775Z,7.38
2022-10-16T07:49:20.087Z,3.25
2022-10-16T07:51:49.201Z,8.73
2022-10-16T07:54:18.349Z,6.65
2022-10-16T07:56:47.411Z,4.88
2022-10-16T07:59:16.703Z,5.60
2022-10-16T08:01:47.107Z,4.50
2022-10-16T08:04:16.175Z,6.93
2022-10-16T08:06:45.180Z,3.85
2022-10-16T08:09:14.188Z,4.68
2022-10-16T08:11:43.384Z,3.50
2022-10-16T08:14:12.474Z,3.55
2022-10-16T08:16:41.551Z,3.65
2022-10-16T08:19:12.158Z,2.78
2022-10-16T08:21:41.320Z,7.35
2022-10-16T08:24:10.741Z,4.05
2022-10-16T08:26:39.925Z,3.70
2022-10-16T08:29:09.395Z,6.30
2022-10-16T08:31:38.685Z,3.88
2022-10-16T08:34:07.859Z,3.47
2022-10-16T08:36:39.115Z,4.03
2022-10-16T08:39:08.271Z,5.70
2022-10-16T08:42:09.367Z,6.13
2022-10-16T08:45:13.221Z,3.97
2022-10-16T08:47:52.161Z,6.38
2022-10-16T08:50:28.034Z,3.78
2022-10-16T08:52:59.599Z,4.90
2022-10-16T08:55:37.106Z,4.65
2022-10-16T08:58:14.838Z,3.05
2022-10-16T09:00:46.970Z,4.60
2022-10-16T09:03:28.425Z,3.25
2022-10-16T09:06:29.050Z,4.75
2022-10-16T09:09:17.702Z,2.58
2022-10-16T09:11:55.395Z,6.93
2022-10-16T09:14:53.113Z,3.25
2022-10-16T09:17:46.953Z,5.25
2022-10-16T09:20:25.236Z,3.75
2022-10-16T09:23:02.507Z,6.50
2022-10-16T09:25:34.368Z,4.28
2022-10-16T09:28:03.542Z,4.65
2022-10-16T09:30:33.104Z,4.57
2022-10-16T09:33:02.709Z,5.80
2022-10-16T09:35:39.389Z,2.78
2022-10-16T09:38:10.701Z,6.57
2022-10-16T09:40:45.137Z,5.68
2022-10-16T09:43:25.455Z,7.53
2022-10-16T09:46:02.673Z,2.75
2022-10-16T09:48:40.064Z,4.25
2022-10-16T09:51:25.651Z,4.35
2022-10-16T09:54:09.718Z,6.35
2022-10-16T09:56:53.830Z,2.75
2022-10-16T10:00:10.974Z,4.43
2022-10-16T10:05:26.173Z,2.92
2022-10-16T10:08:01.867Z,5.22
2022-10-16T10:10:34.606Z,3.85
2022-10-16T10:13:06.343Z,2.58
2022-10-16T10:15:40.602Z,3.10
2022-10-16T10:18:24.359Z,6.88
2022-10-16T10:21:07.062Z,2.88
2022-10-16T10:23:37.425Z,2.70
2022-10-16T10:26:15.969Z,5.85
2022-10-16T10:29:02.750Z,4.60
2022-10-16T10:31:42.162Z,4.00
2022-10-16T10:34:41.210Z,2.15
2022-10-16T10:37:27.481Z,2.40
2022-10-16T10:40:13.799Z,3.65
2022-10-16T10:42:51.314Z,2.90
2022-10-16T10:45:29.276Z,7.97
2022-10-16T10:48:19.998Z,3.03
2022-10-16T10:50:54.794Z,3.90
2022-10-16T10:53:38.639Z,3.15
2022-10-16T10:56:22.983Z,5.40
2022-10-16T10:59:12.104Z,3.42
2022-10-16T11:01:52.865Z,3.75
2022-10-16T11:04:41.031Z,4.85
2022-10-16T11:07:24.945Z,2.53
2022-10-16T11:10:00.019Z,2.90
2022-10-16T11:12:34.285Z,2.65
2022-10-16T11:15:09.870Z,2.65
2022-10-16T11:17:47.215Z,3.95
2022-10-16T11:20:21.811Z,2.30
2022-10-16T11:22:57.284Z,3.85
2022-10-16T11:25:29.786Z,2.30
2022-10-16T11:28:08.092Z,3.42
2022-10-16T11:30:49.334Z,3.70
2022-10-16T11:33:32.473Z,4.10
2022-10-16T11:36:11.895Z,2.50
2022-10-16T11:38:51.318Z,2.40
2022-10-16T11:41:29.483Z,2.15
2022-10-16T11:44:37.757Z,1.92
2022-10-16T11:47:39.836Z,2.07
2022-10-16T11:50:27.115Z,2.20
2022-10-16T11:53:05.650Z,2.70
2022-10-16T11:55:46.038Z,2.10
2022-10-16T11:58:28.617Z,6.30
2022-10-16T12:01:07.018Z,14.00
2022-10-16T12:03:44.055Z,3.93
2022-10-16T12:06:33.872Z,6.93
2022-10-16T12:09:04.025Z,2.47
2022-10-16T12:11:40.122Z,5.00
2022-10-16T12:14:46.982Z,2.90
2022-10-16T12:17:29.498Z,2.20
2022-10-16T12:20:14.829Z,3.67
2022-10-16T12:22:55.007Z,4.00
2022-10-16T12:25:29.093Z,2.63
2022-10-16T12:28:04.453Z,2.90
2022-10-16T12:30:37.465Z,2.00
2022-10-16T12:33:08.925Z,2.30
2022-10-16T12:35:46.845Z,2.30
2022-10-16T12:38:21.831Z,2.03
2022-10-16T12:41:01.109Z,2.90
2022-10-16T12:43:43.208Z,2.90
2022-10-16T12:46:35.984Z,2.83
2022-10-16T12:49:25.445Z,2.87
2022-10-16T12:51:54.631Z,2.50
2022-10-16T12:54:31.068Z,3.93
2022-10-16T12:57:27.795Z,6.05
2022-10-16T13:00:06.412Z,4.50
2022-10-16T13:03:01.543Z,2.30
2022-10-16T13:05:50.757Z,3.10
2022-10-16T13:08:38.576Z,2.47
2022-10-16T13:11:23.199Z,2.67
2022-10-16T13:14:17.351Z,2.67
2022-10-16T13:16:57.778Z,3.50
2022-10-16T13:19:36.868Z,2.27
2022-10-16T13:22:17.354Z,3.93
2022-10-16T13:25:13.957Z,4.17
2022-10-16T13:27:52.780Z,2.40
2022-10-16T13:30:28.157Z,2.60
2022-10-16T13:33:04.075Z,2.93
2022-10-16T13:35:36.887Z,3.73
2022-10-16T13:38:11.362Z,5.23
2022-10-16T13:40:53.127Z,2.67
2022-10-16T13:43:28.333Z,2.57
2022-10-16T13:45:59.962Z,4.13
2022-10-16T13:48:28.959Z,4.73
2022-10-16T13:51:03.735Z,2.33
2022-10-16T13:53:34.751Z,2.60
2022-10-16T13:56:07.485Z,2.27
2022-10-16T13:58:38.266Z,2.63
2022-10-16T14:01:21.254Z,2.20
2022-10-16T14:03:51.521Z,3.20
2022-10-16T14:06:26.573Z,2.20
2022-10-16T14:09:01.713Z,3.17
2022-10-16T14:11:34.922Z,2.87
2022-10-16T14:14:06.938Z,5.77
2022-10-16T14:16:36.066Z,3.17
2022-10-16T14:19:08.218Z,2.65
2022-10-16T14:21:39.981Z,3.90
2022-10-16T14:24:13.798Z,2.60
2022-10-16T14:26:51.068Z,6.53
2022-10-16T14:29:26.421Z,3.75
2022-10-16T14:32:00.300Z,4.60
2022-10-16T14:34:33.855Z,2.70
2022-10-16T14:37:10.392Z,5.53
2022-10-16T14:39:39.758Z,7.18
2022-10-16T14:42:19.946Z,3.90
2022-10-16T14:44:53.790Z,4.80
2022-10-16T14:47:27.648Z,3.03
2022-10-16T14:49:59.854Z,2.70
2022-10-16T14:52:28.846Z,4.13
2022-10-16T14:54:58.323Z,4.45
2022-10-16T14:57:31.975Z,6.23
2022-10-16T15:00:03.286Z,3.10
2022-10-16T15:02:35.145Z,7.27
2022-10-16T15:05:15.317Z,4.03
2022-10-16T15:07:44.807Z,4.53
2022-10-16T15:10:14.377Z,3.80
2022-10-16T15:12:44.755Z,4.70
2022-10-16T15:15:44.946Z,3.73
2022-10-16T15:18:15.777Z,5.03
2022-10-16T15:20:44.740Z,4.23
2022-10-16T15:23:17.330Z,3.07
2022-10-16T15:25:49.339Z,3.53
2022-10-16T15:28:43.487Z,3.40
2022-10-16T15:31:16.354Z,4.23
2022-10-16T15:33:53.802Z,3.90
2022-10-16T15:36:32.190Z,2.83
2022-10-16T15:39:01.821Z,2.80
2022-10-16T15:41:31.255Z,2.93
2022-10-16T15:44:00.386Z,2.70
2022-10-16T15:46:34.638Z,2.65
2022-10-16T15:49:03.792Z,3.47
2022-10-16T15:51:35.338Z,5.30
2022-10-16T15:54:04.360Z,7.03
2022-10-16T15:56:34.346Z,6.97
2022-10-16T15:59:07.434Z,4.90
2022-10-16T16:01:39.507Z,7.57
2022-10-16T16:04:15.416Z,4.82
2022-10-16T16:06:49.358Z,4.53
2022-10-16T16:09:18.586Z,6.30
2022-10-16T16:11:47.640Z,5.00
2022-10-16T16:14:17.585Z,3.67
2022-10-16T16:16:48.233Z,3.85
2022-10-16T16:19:21.898Z,4.40
2022-10-16T16:21:51.551Z,3.83
2022-10-16T16:24:21.104Z,4.55
2022-10-16T16:26:50.244Z,4.13
2022-10-16T16:29:19.516Z,3.83
2022-10-16T16:31:50.983Z,5.80
2022-10-16T16:34:20.285Z,3.50
2022-10-16T16:36:49.390Z,3.70
2022-10-16T16:39:20.659Z,3.30
2022-10-16T16:41:52.574Z,3.60
2022-10-16T16:44:24.482Z,3.42
2022-10-16T16:46:55.545Z,5.40
2022-10-16T16:49:24.762Z,5.20
2022-10-16T16:51:55.933Z,5.57
2022-10-16T16:54:25.847Z,5.45
2022-10-16T16:56:54.999Z,6.45
2022-10-16T16:59:24.142Z,4.32
2022-10-16T17:01:57.174Z,5.13
2022-10-16T17:04:26.501Z,4.40
2022-10-16T17:06:56.367Z,6.07
2022-10-16T17:09:25.557Z,8.30
2022-10-16T17:11:54.817Z,6.45
2022-10-16T17:14:23.829Z,4.68
2022-10-16T17:16:55.857Z,8.10
2022-10-16T17:19:27.097Z,5.97
2022-10-16T17:21:56.347Z,5.32
2022-10-16T17:24:25.501Z,5.40
2022-10-16T17:26:54.580Z,6.65
2022-10-16T17:29:23.616Z,7.93
2022-10-16T17:31:52.994Z,6.38
2022-10-16T17:34:23.638Z,5.95
2022-10-16T17:36:53.557Z,7.10
2022-10-16T17:39:23.338Z,5.85
2022-10-16T17:41:52.444Z,6.63
2022-10-16T17:44:21.569Z,7.00
2022-10-16T17:46:53.717Z,5.38
2022-10-16T17:51:59.020Z,7.32
2022-10-16T17:54:28.298Z,5.38
2022-10-16T17:56:57.366Z,7.25
2022-10-16T17:59:26.473Z,7.30
2022-10-16T18:01:55.598Z,8.93
2022-10-16T18:04:26.067Z,5.18
2022-10-16T18:06:56.559Z,8.43
2022-10-16T18:09:25.646Z,5.68
2022-10-16T18:11:59.967Z,6.82
2022-10-16T18:14:31.880Z,7.65
2022-10-16T18:17:01.117Z,7.50
2022-10-16T18:19:31.647Z,8.20
2022-10-16T18:22:01.032Z,11.10
2022-10-16T18:24:30.183Z,13.15
2022-10-16T18:26:59.249Z,7.07
2022-10-16T18:29:28.909Z,11.13
2022-10-16T18:31:58.946Z,10.40
2022-10-16T18:34:28.045Z,9.40
2022-10-16T18:36:58.599Z,8.68
2022-10-16T18:39:27.546Z,7.50
2022-10-16T18:41:59.795Z,10.23
2022-10-16T18:44:31.063Z,9.55
2022-10-16T18:47:00.173Z,8.38
2022-10-16T18:49:29.752Z,8.02
2022-10-16T18:52:02.775Z,8.40
2022-10-16T18:54:32.912Z,15.73
2022-10-16T18:57:07.152Z,9.77
2022-10-16T18:59:36.215Z,10.13
2022-10-16T19:02:05.292Z,13.75
2022-10-16T19:04:34.372Z,12.90
2022-10-16T19:07:04.826Z,9.55
2022-10-16T19:09:33.844Z,13.18
2022-10-16T19:12:03.090Z,8.20
2022-10-16T19:14:32.637Z,9.65
2022-10-16T19:17:01.765Z,9.43
2022-10-16T19:19:31.051Z,20.77
2022-10-16T19:22:11.571Z,9.18
2022-10-16T19:24:42.358Z,8.93
2022-10-16T19:27:11.779Z,13.77
2022-10-16T19:29:40.796Z,10.02
2022-10-16T19:32:09.852Z,13.38
2022-10-16T19:34:39.180Z,9.85
2022-10-16T19:37:10.467Z,8.25
2022-10-16T19:39:40.855Z,9.07
2022-10-16T19:42:09.943Z,8.20
2022-10-16T19:44:38.978Z,9.27
2022-10-16T19:47:08.144Z,11.77
2022-10-16T19:49:37.393Z,10.82
2022-10-16T19:52:06.804Z,9.27
2022-10-16T19:54:39.045Z,10.27
2022-10-16T19:57:09.478Z,7.68
2022-10-16T19:59:40.763Z,7.32
2022-10-16T20:02:12.580Z,12.07
2022-10-16T20:04:41.882Z,12.15
2022-10-16T20:07:10.963Z,9.75
2022-10-16T20:09:40.024Z,8.43
2022-10-16T20:12:10.435Z,9.18
2022-10-16T20:14:39.552Z,7.45
2022-10-16T20:17:08.715Z,9.82
2022-10-16T20:19:39.390Z,10.45
2022-10-16T20:22:08.532Z,8.90
2022-10-16T20:24:37.916Z,10.55
2022-10-16T20:27:07.001Z,11.10
2022-10-16T20:29:37.588Z,7.57
2022-10-16T20:32:06.885Z,8.93
2022-10-16T20:34:36.037Z,10.38
2022-10-16T20:37:05.109Z,9.27
2022-10-16T20:39:34.396Z,11.98
2022-10-16T20:42:03.881Z,7.68
2022-10-16T20:44:33.373Z,11.07
2022-10-16T20:47:03.925Z,7.13
2022-10-16T20:49:41.095Z,16.42
2022-10-16T20:52:10.301Z,18.05
2022-10-16T20:54:39.305Z,7.25
2022-10-16T20:57:08.314Z,10.90
2022-10-16T20:59:37.653Z,13.30
2022-10-16T21:02:13.319Z,10.63
2022-10-16T21:04:43.446Z,12.40
2022-10-16T21:07:12.523Z,7.97
2022-10-16T21:09:41.609Z,13.35
2022-10-16T21:12:10.967Z,11.85
2022-10-16T21:14:46.496Z,11.00
2022-10-16T21:17:27.050Z,10.13
2022-10-16T21:19:56.088Z,9.57
2022-10-16T21:22:25.691Z,7.05
2022-10-16T21:24:54.894Z,9.73
2022-10-16T21:27:23.951Z,7.38
2022-10-16T21:29:54.451Z,9.23
2022-10-16T21:32:23.636Z,11.77
2022-10-16T21:34:54.010Z,8.32
2022-10-16T21:37:23.131Z,6.43
2022-10-16T21:39:52.155Z,11.73
2022-10-16T21:42:21.210Z,8.70
2022-10-16T21:44:50.494Z,9.10
2022-10-16T21:47:19.482Z,10.07
2022-10-16T21:49:48.741Z,8.10
2022-10-16T21:52:19.153Z,10.90
2022-10-16T21:54:48.177Z,11.40
2022-10-16T21:57:17.212Z,8.25
2022-10-16T21:59:46.268Z,7.07
2022-10-16T22:02:15.584Z,7.90
2022-10-16T22:04:44.569Z,9.10
2022-10-16T22:07:13.771Z,8.30
2022-10-16T22:09:44.312Z,8.75
2022-10-16T22:12:13.331Z,10.63
2022-10-16T22:14:42.277Z,12.02
2022-10-16T22:17:11.267Z,7.07
2022-10-16T22:19:40.266Z,7.70
2022-10-16T22:22:09.268Z,5.80
2022-10-16T22:24:38.740Z,6.78
2022-10-16T22:27:09.132Z,10.77
2022-10-16T22:29:38.239Z,7.05
2022-10-16T22:32:07.225Z,11.30
2022-10-16T22:34:36.356Z,7.15
2022-10-16T22:37:05.325Z,6.15
2022-10-16T22:39:34.552Z,6.90
2022-10-16T22:42:04.140Z,6.90
2022-10-16T22:44:34.510Z,9.00
2022-10-16T22:47:03.803Z,6.40
2022-10-16T22:49:32.816Z,10.10
2022-10-16T22:52:02.726Z,7.53
2022-10-16T22:54:31.768Z,5.78
2022-10-16T22:57:00.787Z,9.38
2022-10-16T22:59:29.836Z,7.20
2022-10-16T23:02:00.210Z,7.53
2022-10-16T23:04:29.336Z,8.18
2022-10-16T23:06:59.125Z,8.30
2022-10-16T23:09:28.417Z,8.15
2022-10-16T23:11:57.766Z,8.43
2022-10-16T23:14:26.914Z,8.85
2022-10-16T23:16:55.926Z,7.53
2022-10-16T23:19:26.394Z,8.27
2022-10-16T23:22:08.329Z,7.00
2022-10-16T23:24:43.731Z,13.13
2022-10-16T23:27:13.410Z,9.70
2022-10-16T23:29:42.471Z,8.98
2022-10-16T23:32:11.510Z,10.25
2022-10-16T23:34:41.986Z,6.88
2022-10-16T23:37:11.224Z,8.05
2022-10-16T23:39:40.322Z,10.60
2022-10-16T23:42:09.334Z,6.45
2022-10-16T23:44:38.505Z,14.15
2022-10-16T23:47:07.632Z,6.70
2022-10-16T23:49:36.806Z,7.60
2022-10-16T23:52:10.247Z,6.70
2022-10-16T23:54:41.533Z,7.95
2022-10-16T23:57:11.037Z,6.40
2022-10-16T23:59:40.231Z,13.98
